This is the latest recevied weather packets stored in our database for station/object DL8TF-13. If no packets are shown the sender has not sent any weather packets the latest 10 day(s).
| Time | Temp. | Humidity | Pressure | Rain* | Wind** | Luminosity | Snow |
|---|---|---|---|---|---|---|---|
| 1777812831 | 28.89° C | 22% | 982 hPa | - | - | - | - |
| 1777812231 | 30° C | 22% | 982 hPa | - | - | - | - |
| 1777811631 | 30° C | 22% | 982 hPa | - | - | - | - |
| 1777811031 | 33.33° C | 18% | 982 hPa | - | - | - | - |
| 1777810431 | 34.44° C | 17% | 982 hPa | - | - | - | - |
| 1777809831 | 34.44° C | 17% | 982 hPa | - | - | - | - |
| 1777809230 | 34.44° C | 17% | 982 hPa | - | - | - | - |
| 1777808630 | 34.44° C | 18% | 982 hPa | - | - | - | - |
| 1777808030 | 31.67° C | 20% | 982 hPa | - | - | - | - |
| 1777807430 | 26.67° C | 27% | 982 hPa | - | - | - | - |
| 1777806829 | 25° C | 30% | 982 hPa | - | - | - | - |
| 1777806229 | 23.89° C | 30% | 982 hPa | - | - | - | - |
| 1777805629 | 23.89° C | 31% | 982 hPa | - | - | - | - |
| 1777805029 | 22.78° C | 32% | 982 hPa | - | - | - | - |
| 1777804429 | 22.22° C | 34% | 983 hPa | - | - | - | - |
| 1777803829 | 22.22° C | 33% | 983 hPa | - | - | - | - |
| 1777803229 | 21.67° C | 34% | 983 hPa | - | - | - | - |
| 1777802629 | 21.11° C | 38% | 983 hPa | - | - | - | - |
| 1777802029 | 21.11° C | 34% | 983 hPa | - | - | - | - |
| 1777801429 | 21.11° C | 34% | 983 hPa | - | - | - | - |
| 1777800829 | 21.67° C | 32% | 983 hPa | - | - | - | - |
| 1777800229 | 21.67° C | 32% | 983 hPa | - | - | - | - |
| 1777799629 | 21.11° C | 36% | 983 hPa | - | - | - | - |
| 1777799029 | 20.56° C | 37% | 983 hPa | - | - | - | - |
| 1777798429 | 19.44° C | 39% | 984 hPa | - | - | - | - |
* Rain since midnight (hover to see other rain measurements)
** Current wind speed in m/s (hover to see current wind gust speed)